Nye, Wisconsin
Current Conditions -  °F | °C
As of 10:15 AM on Saturday 20 Dec 2014 (Local Time) from KOEO Reporting Station
Haze Haze  
Wind Chill: 22°   Ceiling: 1000
Heat Index: 31°   Visibility: 5mi
Dew Point: 27°   Wind: 9mph
Humidity: 87%   Direction: 140°SE
Pressure: 30.19"   Gusts: NA
Location:  45.3193°N, 92.6951°W
Report Text: KOEO 201615Z AUTO 14008KT 5SM BR OVC010 M01/M03 A3019 RMK AO2 T10081027
Loading
Personal Weather Stations






























Interactive Weather Map New forecast layout! Learn more

10-Day Weather Forecast

Advertisements
Track Severe Weather on mobile